sensor_id;sensor_type;location;lat;lon;timestamp;pressure;altitude;pressure_sealevel;temperature;humidity
18504;BME280;9381;54.244;10.074;2023-03-12T00:03:43;100473.59;;;2.53;100.00
18504;BME280;9381;54.244;10.074;2023-03-12T00:08:44;100474.97;;;2.33;100.00
18504;BME280;9381;54.244;10.074;2023-03-12T00:13:48;100476.94;;;2.47;100.00
18504;BME280;9381;54.244;10.074;2023-03-12T00:18:50;100481.28;;;2.40;100.00
18504;BME280;9381;54.244;10.074;2023-03-12T00:23:51;100484.94;;;2.39;100.00
18504;BME280;9381;54.244;10.074;2023-03-12T00:28:51;100484.63;;;2.42;100.00
18504;BME280;9381;54.244;10.074;2023-03-12T00:33:53;100490.50;;;2.30;100.00
18504;BME280;9381;54.244;10.074;2023-03-12T00:38:55;100487.97;;;2.36;100.00
18504;BME280;9381;54.244;10.074;2023-03-12T00:43:55;100486.97;;;2.29;100.00
18504;BME280;9381;54.244;10.074;2023-03-12T00:48:56;100501.34;;;2.20;100.00
18504;BME280;9381;54.244;10.074;2023-03-12T00:53:56;100494.97;;;2.29;100.00
18504;BME280;9381;54.244;10.074;2023-03-12T00:58:57;100500.16;;;2.31;100.00
18504;BME280;9381;54.244;10.074;2023-03-12T01:03:57;100506.81;;;2.27;100.00
18504;BME280;9381;54.244;10.074;2023-03-12T01:09:01;100505.66;;;2.29;100.00
18504;BME280;9381;54.244;10.074;2023-03-12T01:14:03;100512.00;;;2.20;100.00
18504;BME280;9381;54.244;10.074;2023-03-12T01:19:04;100511.50;;;2.17;100.00
18504;BME280;9381;54.244;10.074;2023-03-12T01:24:05;100506.00;;;2.26;100.00
18504;BME280;9381;54.244;10.074;2023-03-12T01:29:05;100508.34;;;2.21;100.00
18504;BME280;9381;54.244;10.074;2023-03-12T01:34:06;100511.34;;;2.26;100.00
18504;BME280;9381;54.244;10.074;2023-03-12T01:39:06;100510.00;;;2.14;100.00
18504;BME280;9381;54.244;10.074;2023-03-12T01:44:07;100506.88;;;2.11;100.00
18504;BME280;9381;54.244;10.074;2023-03-12T01:49:24;100500.03;;;2.08;100.00
18504;BME280;9381;54.244;10.074;2023-03-12T01:59:36;100498.50;;;2.14;100.00
18504;BME280;9381;54.244;10.074;2023-03-12T02:04:38;100507.03;;;2.09;100.00
18504;BME280;9381;54.244;10.074;2023-03-12T02:09:42;100502.19;;;2.21;100.00
18504;BME280;9381;54.244;10.074;2023-03-12T02:14:44;100509.50;;;2.19;98.91
18504;BME280;9381;54.244;10.074;2023-03-12T02:19:51;100508.69;;;2.10;99.96
18504;BME280;9381;54.244;10.074;2023-03-12T02:30:20;100504.84;;;2.13;97.58
18504;BME280;9381;54.244;10.074;2023-03-12T02:35:21;100512.00;;;2.04;97.55
18504;BME280;9381;54.244;10.074;2023-03-12T02:40:26;100518.03;;;1.98;97.92
18504;BME280;9381;54.244;10.074;2023-03-12T02:45:28;100521.34;;;1.92;98.63
18504;BME280;9381;54.244;10.074;2023-03-12T02:50:29;100518.34;;;1.95;97.62
18504;BME280;9381;54.244;10.074;2023-03-12T02:55:29;100523.34;;;1.90;98.14
18504;BME280;9381;54.244;10.074;2023-03-12T03:00:30;100526.84;;;1.75;98.69
18504;BME280;9381;54.244;10.074;2023-03-12T03:05:31;100523.50;;;1.89;97.69
18504;BME280;9381;54.244;10.074;2023-03-12T03:10:31;100522.69;;;1.88;96.48
18504;BME280;9381;54.244;10.074;2023-03-12T03:15:32;100529.53;;;1.83;95.85
18504;BME280;9381;54.244;10.074;2023-03-12T03:20:32;100526.66;;;1.76;95.26
18504;BME280;9381;54.244;10.074;2023-03-12T03:25:32;100534.34;;;1.63;95.05
18504;BME280;9381;54.244;10.074;2023-03-12T03:30:33;100525.66;;;1.53;95.45
18504;BME280;9381;54.244;10.074;2023-03-12T03:35:33;100530.63;;;1.48;97.23
18504;BME280;9381;54.244;10.074;2023-03-12T03:40:34;100531.97;;;1.44;98.88
18504;BME280;9381;54.244;10.074;2023-03-12T03:45:34;100535.16;;;1.48;100.00
18504;BME280;9381;54.244;10.074;2023-03-12T03:50:38;100533.78;;;1.44;100.00
18504;BME280;9381;54.244;10.074;2023-03-12T03:55:39;100540.44;;;1.40;100.00
18504;BME280;9381;54.244;10.074;2023-03-12T04:00:43;100523.13;;;1.44;100.00
18504;BME280;9381;54.244;10.074;2023-03-12T04:05:43;100529.31;;;1.44;100.00
18504;BME280;9381;54.244;10.074;2023-03-12T04:10:44;100529.94;;;1.38;99.82
18504;BME280;9381;54.244;10.074;2023-03-12T04:15:50;100519.28;;;1.38;100.00
18504;BME280;9381;54.244;10.074;2023-03-12T04:20:51;100521.94;;;1.30;100.00
18504;BME280;9381;54.244;10.074;2023-03-12T04:25:51;100511.94;;;1.40;100.00
18504;BME280;9381;54.244;10.074;2023-03-12T04:30:59;100508.97;;;1.35;100.00
18504;BME280;9381;54.244;10.074;2023-03-12T04:36:00;100514.47;;;1.42;100.00
18504;BME280;9381;54.244;10.074;2023-03-12T04:41:08;100509.97;;;1.42;100.00
18504;BME280;9381;54.244;10.074;2023-03-12T04:46:09;100510.97;;;1.33;100.00
18504;BME280;9381;54.244;10.074;2023-03-12T04:51:10;100503.78;;;1.34;100.00
18504;BME280;9381;54.244;10.074;2023-03-12T04:56:10;100499.31;;;1.34;100.00
18504;BME280;9381;54.244;10.074;2023-03-12T05:01:21;100496.28;;;1.29;100.00
18504;BME280;9381;54.244;10.074;2023-03-12T05:06:23;100485.13;;;1.26;100.00
18504;BME280;9381;54.244;10.074;2023-03-12T05:11:24;100502.28;;;1.39;100.00
18504;BME280;9381;54.244;10.074;2023-03-12T05:16:24;100508.28;;;1.41;100.00
18504;BME280;9381;54.244;10.074;2023-03-12T05:21:25;100507.31;;;1.50;100.00
18504;BME280;9381;54.244;10.074;2023-03-12T05:26:27;100519.31;;;1.54;100.00
18504;BME280;9381;54.244;10.074;2023-03-12T05:31:31;100509.78;;;1.44;100.00
18504;BME280;9381;54.244;10.074;2023-03-12T05:36:33;100517.97;;;1.50;100.00
18504;BME280;9381;54.244;10.074;2023-03-12T05:41:34;100531.28;;;1.34;100.00
18504;BME280;9381;54.244;10.074;2023-03-12T05:46:34;100524.22;;;1.17;100.00
18504;BME280;9381;54.244;10.074;2023-03-12T05:51:35;100523.94;;;1.28;100.00
18504;BME280;9381;54.244;10.074;2023-03-12T05:56:36;100529.19;;;1.12;100.00
18504;BME280;9381;54.244;10.074;2023-03-12T06:01:37;100530.75;;;1.23;100.00
18504;BME280;9381;54.244;10.074;2023-03-12T06:06:38;100521.28;;;1.36;100.00
18504;BME280;9381;54.244;10.074;2023-03-12T06:11:38;100512.66;;;1.42;100.00
18504;BME280;9381;54.244;10.074;2023-03-12T06:16:39;100514.63;;;1.40;100.00
18504;BME280;9381;54.244;10.074;2023-03-12T06:21:41;100512.34;;;1.61;100.00
18504;BME280;9381;54.244;10.074;2023-03-12T06:26:42;100506.34;;;1.75;100.00
18504;BME280;9381;54.244;10.074;2023-03-12T06:31:42;100498.69;;;1.80;100.00
18504;BME280;9381;54.244;10.074;2023-03-12T06:36:43;100492.38;;;1.89;100.00
18504;BME280;9381;54.244;10.074;2023-03-12T06:41:44;100492.19;;;1.99;100.00
18504;BME280;9381;54.244;10.074;2023-03-12T06:46:44;100491.34;;;1.82;100.00
18504;BME280;9381;54.244;10.074;2023-03-12T06:51:45;100488.00;;;1.96;100.00
18504;BME280;9381;54.244;10.074;2023-03-12T06:56:45;100495.34;;;1.70;100.00
18504;BME280;9381;54.244;10.074;2023-03-12T07:01:46;100504.00;;;1.96;100.00
18504;BME280;9381;54.244;10.074;2023-03-12T07:06:46;100498.66;;;2.12;100.00
18504;BME280;9381;54.244;10.074;2023-03-12T07:11:49;100501.66;;;2.33;100.00
18504;BME280;9381;54.244;10.074;2023-03-12T07:16:49;100497.50;;;2.31;100.00
18504;BME280;9381;54.244;10.074;2023-03-12T07:21:50;100492.97;;;2.31;100.00
18504;BME280;9381;54.244;10.074;2023-03-12T07:26:50;100484.13;;;2.39;100.00
18504;BME280;9381;54.244;10.074;2023-03-12T07:31:50;100487.97;;;2.28;100.00
18504;BME280;9381;54.244;10.074;2023-03-12T07:36:50;100483.97;;;2.32;100.00
18504;BME280;9381;54.244;10.074;2023-03-12T07:41:51;100485.59;;;2.49;100.00
18504;BME280;9381;54.244;10.074;2023-03-12T07:46:52;100493.47;;;2.43;100.00
18504;BME280;9381;54.244;10.074;2023-03-12T07:51:52;100496.25;;;2.57;100.00
18504;BME280;9381;54.244;10.074;2023-03-12T07:56:54;100493.97;;;2.38;100.00
18504;BME280;9381;54.244;10.074;2023-03-12T08:01:54;100495.56;;;2.71;100.00
18504;BME280;9381;54.244;10.074;2023-03-12T08:06:55;100493.19;;;2.76;100.00
18504;BME280;9381;54.244;10.074;2023-03-12T08:11:55;100502.88;;;2.69;100.00
18504;BME280;9381;54.244;10.074;2023-03-12T08:16:57;100499.56;;;2.67;100.00
18504;BME280;9381;54.244;10.074;2023-03-12T08:21:57;100498.00;;;2.80;100.00
18504;BME280;9381;54.244;10.074;2023-03-12T08:26:58;100503.16;;;2.90;100.00
18504;BME280;9381;54.244;10.074;2023-03-12T08:31:58;100493.25;;;2.98;100.00
18504;BME280;9381;54.244;10.074;2023-03-12T08:37:00;100492.44;;;2.98;100.00
18504;BME280;9381;54.244;10.074;2023-03-12T08:42:00;100487.72;;;3.08;100.00
18504;BME280;9381;54.244;10.074;2023-03-12T08:47:00;100479.31;;;3.19;100.00
18504;BME280;9381;54.244;10.074;2023-03-12T08:52:01;100464.19;;;3.34;100.00
18504;BME280;9381;54.244;10.074;2023-03-12T08:57:01;100461.75;;;3.47;100.00
18504;BME280;9381;54.244;10.074;2023-03-12T09:02:02;100461.75;;;3.47;100.00
18504;BME280;9381;54.244;10.074;2023-03-12T09:07:03;100443.56;;;3.42;100.00
18504;BME280;9381;54.244;10.074;2023-03-12T09:12:03;100438.94;;;3.59;100.00
18504;BME280;9381;54.244;10.074;2023-03-12T09:17:04;100432.56;;;3.60;100.00
18504;BME280;9381;54.244;10.074;2023-03-12T09:22:05;100423.84;;;3.66;100.00
18504;BME280;9381;54.244;10.074;2023-03-12T09:27:05;100421.16;;;4.03;100.00
18504;BME280;9381;54.244;10.074;2023-03-12T09:32:05;100413.97;;;4.03;100.00
18504;BME280;9381;54.244;10.074;2023-03-12T09:37:06;100411.13;;;4.19;100.00
18504;BME280;9381;54.244;10.074;2023-03-12T09:42:16;100409.94;;;4.36;100.00
18504;BME280;9381;54.244;10.074;2023-03-12T09:47:25;100410.31;;;4.48;100.00
18504;BME280;9381;54.244;10.074;2023-03-12T09:52:32;100393.28;;;4.70;100.00
18504;BME280;9381;54.244;10.074;2023-03-12T09:57:33;100385.50;;;4.89;100.00
18504;BME280;9381;54.244;10.074;2023-03-12T10:03:01;100371.69;;;5.28;100.00
18504;BME280;9381;54.244;10.074;2023-03-12T10:08:28;100355.09;;;5.39;100.00
18504;BME280;9381;54.244;10.074;2023-03-12T10:13:46;100345.34;;;5.31;100.00
18504;BME280;9381;54.244;10.074;2023-03-12T10:19:01;100341.88;;;5.58;100.00
18504;BME280;9381;54.244;10.074;2023-03-12T10:29:15;100311.84;;;5.75;100.00
18504;BME280;9381;54.244;10.074;2023-03-12T10:34:41;100306.66;;;5.95;100.00
18504;BME280;9381;54.244;10.074;2023-03-12T10:39:42;100291.97;;;6.31;97.86
18504;BME280;9381;54.244;10.074;2023-03-12T10:44:46;100291.50;;;6.15;96.82
18504;BME280;9381;54.244;10.074;2023-03-12T10:49:48;100282.84;;;6.19;94.61
18504;BME280;9381;54.244;10.074;2023-03-12T10:54:51;100285.88;;;6.50;95.62
18504;BME280;9381;54.244;10.074;2023-03-12T11:00:04;100278.41;;;6.52;94.51
18504;BME280;9381;54.244;10.074;2023-03-12T11:10:38;100266.88;;;6.58;91.75
18504;BME280;9381;54.244;10.074;2023-03-12T11:15:42;100277.69;;;6.71;91.85
18504;BME280;9381;54.244;10.074;2023-03-12T11:20:42;100260.88;;;6.56;89.28
18504;BME280;9381;54.244;10.074;2023-03-12T11:25:50;100256.56;;;6.68;88.82
18504;BME280;9381;54.244;10.074;2023-03-12T11:30:52;100251.19;;;6.55;88.62
18504;BME280;9381;54.244;10.074;2023-03-12T11:46:58;100257.34;;;6.56;86.02
18504;BME280;9381;54.244;10.074;2023-03-12T11:52:26;100238.41;;;6.83;85.75
18504;BME280;9381;54.244;10.074;2023-03-12T11:57:50;100248.34;;;6.83;85.90
18504;BME280;9381;54.244;10.074;2023-03-12T12:03:15;100247.53;;;6.82;79.82
18504;BME280;9381;54.244;10.074;2023-03-12T12:24:23;100192.53;;;6.91;75.14
18504;BME280;9381;54.244;10.074;2023-03-12T12:40:18;100151.53;;;6.37;69.52
18504;BME280;9381;54.244;10.074;2023-03-12T12:45:20;100162.03;;;6.19;70.11
18504;BME280;9381;54.244;10.074;2023-03-12T12:50:25;100129.13;;;6.11;71.67
18504;BME280;9381;54.244;10.074;2023-03-12T12:55:33;100116.56;;;6.11;71.01
18504;BME280;9381;54.244;10.074;2023-03-12T13:05:44;100120.53;;;6.28;72.32
18504;BME280;9381;54.244;10.074;2023-03-12T13:10:47;100115.16;;;6.28;73.46
18504;BME280;9381;54.244;10.074;2023-03-12T13:15:48;100118.00;;;6.14;72.74
18504;BME280;9381;54.244;10.074;2023-03-12T13:26:10;100086.41;;;6.16;74.63
18504;BME280;9381;54.244;10.074;2023-03-12T13:36:27;100061.78;;;5.93;79.03
18504;BME280;9381;54.244;10.074;2023-03-12T13:41:41;100057.31;;;6.13;79.44
18504;BME280;9381;54.244;10.074;2023-03-12T13:46:46;100029.00;;;6.10;80.19
18504;BME280;9381;54.244;10.074;2023-03-12T13:52:00;100011.47;;;6.27;80.41
18504;BME280;9381;54.244;10.074;2023-03-12T13:57:10;100016.41;;;6.17;79.92
18504;BME280;9381;54.244;10.074;2023-03-12T14:02:19;100039.69;;;5.97;79.98
18504;BME280;9381;54.244;10.074;2023-03-12T14:07:54;100028.34;;;5.82;81.06
18504;BME280;9381;54.244;10.074;2023-03-12T14:13:15;100019.41;;;5.75;81.99
18504;BME280;9381;54.244;10.074;2023-03-12T14:18:23;100008.94;;;5.80;83.15
18504;BME280;9381;54.244;10.074;2023-03-12T14:23:37;100000.44;;;5.77;81.45
18504;BME280;9381;54.244;10.074;2023-03-12T14:28:40;100000.19;;;5.78;81.06
18504;BME280;9381;54.244;10.074;2023-03-12T14:39:19;99980.28;;;5.41;87.32
18504;BME280;9381;54.244;10.074;2023-03-12T14:44:25;99977.31;;;5.10;92.02
18504;BME280;9381;54.244;10.074;2023-03-12T14:49:27;99972.88;;;4.89;95.53
18504;BME280;9381;54.244;10.074;2023-03-12T14:54:27;99970.34;;;4.81;98.15
18504;BME280;9381;54.244;10.074;2023-03-12T14:59:30;99966.31;;;4.64;100.00
18504;BME280;9381;54.244;10.074;2023-03-12T15:04:32;99955.28;;;4.74;100.00
18504;BME280;9381;54.244;10.074;2023-03-12T15:09:34;99941.84;;;4.67;100.00
18504;BME280;9381;54.244;10.074;2023-03-12T15:14:38;99945.75;;;4.65;100.00
18504;BME280;9381;54.244;10.074;2023-03-12T15:19:40;99954.09;;;4.49;100.00
18504;BME280;9381;54.244;10.074;2023-03-12T15:24:41;99946.06;;;4.49;100.00
18504;BME280;9381;54.244;10.074;2023-03-12T15:29:42;99938.56;;;4.38;100.00
18504;BME280;9381;54.244;10.074;2023-03-12T15:34:43;99932.19;;;4.39;100.00
18504;BME280;9381;54.244;10.074;2023-03-12T15:39:49;99940.00;;;4.34;100.00
18504;BME280;9381;54.244;10.074;2023-03-12T15:44:54;99931.16;;;4.40;100.00
18504;BME280;9381;54.244;10.074;2023-03-12T15:50:58;99928.88;;;4.37;100.00
18504;BME280;9381;54.244;10.074;2023-03-12T15:55:29;99931.50;;;4.03;100.00
18504;BME280;9381;54.244;10.074;2023-03-12T16:00:42;99916.50;;;4.02;100.00
18504;BME280;9381;54.244;10.074;2023-03-12T16:05:43;99909.00;;;3.91;100.00
18504;BME280;9381;54.244;10.074;2023-03-12T16:10:45;99889.56;;;3.82;100.00
18504;BME280;9381;54.244;10.074;2023-03-12T16:15:46;99883.84;;;3.85;100.00
18504;BME280;9381;54.244;10.074;2023-03-12T16:20:49;99892.59;;;3.73;100.00
18504;BME280;9381;54.244;10.074;2023-03-12T16:25:52;99868.00;;;3.56;100.00
18504;BME280;9381;54.244;10.074;2023-03-12T16:30:53;99855.56;;;3.49;100.00
18504;BME280;9381;54.244;10.074;2023-03-12T16:35:54;99857.88;;;3.52;100.00
18504;BME280;9381;54.244;10.074;2023-03-12T16:40:54;99847.94;;;3.46;100.00
18504;BME280;9381;54.244;10.074;2023-03-12T16:45:55;99857.47;;;3.55;100.00
18504;BME280;9381;54.244;10.074;2023-03-12T16:50:56;99862.81;;;3.55;100.00
18504;BME280;9381;54.244;10.074;2023-03-12T16:55:59;99853.03;;;3.41;100.00
18504;BME280;9381;54.244;10.074;2023-03-12T17:01:00;99832.41;;;3.56;100.00
18504;BME280;9381;54.244;10.074;2023-03-12T17:06:01;99825.59;;;3.53;100.00
18504;BME280;9381;54.244;10.074;2023-03-12T17:11:01;99809.97;;;3.57;100.00
18504;BME280;9381;54.244;10.074;2023-03-12T17:16:03;99808.88;;;3.45;100.00
18504;BME280;9381;54.244;10.074;2023-03-12T17:21:04;99819.34;;;3.46;100.00
18504;BME280;9381;54.244;10.074;2023-03-12T17:26:05;99830.97;;;3.60;100.00
18504;BME280;9381;54.244;10.074;2023-03-12T17:31:05;99812.50;;;3.65;100.00
18504;BME280;9381;54.244;10.074;2023-03-12T17:36:07;99809.97;;;3.57;100.00
18504;BME280;9381;54.244;10.074;2023-03-12T17:41:08;99799.91;;;3.59;100.00
18504;BME280;9381;54.244;10.074;2023-03-12T17:46:10;99787.84;;;3.63;100.00
18504;BME280;9381;54.244;10.074;2023-03-12T17:51:10;99802.22;;;3.62;100.00
18504;BME280;9381;54.244;10.074;2023-03-12T17:56:11;99797.00;;;3.81;100.00
18504;BME280;9381;54.244;10.074;2023-03-12T18:01:13;99793.72;;;3.86;100.00
18504;BME280;9381;54.244;10.074;2023-03-12T18:06:13;99791.16;;;3.99;100.00
18504;BME280;9381;54.244;10.074;2023-03-12T18:11:13;99794.25;;;4.02;100.00
18504;BME280;9381;54.244;10.074;2023-03-12T18:16:14;99792.25;;;4.17;100.00
18504;BME280;9381;54.244;10.074;2023-03-12T18:21:14;99777.06;;;4.18;100.00
18504;BME280;9381;54.244;10.074;2023-03-12T18:26:15;99774.59;;;4.23;100.00
18504;BME280;9381;54.244;10.074;2023-03-12T18:31:15;99769.69;;;4.33;100.00
18504;BME280;9381;54.244;10.074;2023-03-12T18:36:15;99769.09;;;4.37;100.00
18504;BME280;9381;54.244;10.074;2023-03-12T18:41:16;99766.47;;;4.44;100.00
18504;BME280;9381;54.244;10.074;2023-03-12T18:46:16;99756.97;;;4.48;100.00
18504;BME280;9381;54.244;10.074;2023-03-12T18:51:18;99761.97;;;4.57;100.00
18504;BME280;9381;54.244;10.074;2023-03-12T18:56:19;99756.63;;;4.64;100.00
18504;BME280;9381;54.244;10.074;2023-03-12T19:01:19;99754.59;;;4.79;100.00
18504;BME280;9381;54.244;10.074;2023-03-12T19:06:20;99748.84;;;4.82;100.00
18504;BME280;9381;54.244;10.074;2023-03-12T19:11:20;99759.56;;;4.95;100.00
18504;BME280;9381;54.244;10.074;2023-03-12T19:16:21;99742.06;;;4.99;100.00
18504;BME280;9381;54.244;10.074;2023-03-12T19:21:21;99729.47;;;5.06;100.00
18504;BME280;9381;54.244;10.074;2023-03-12T19:26:22;99741.06;;;5.26;100.00
18504;BME280;9381;54.244;10.074;2023-03-12T19:31:22;99740.22;;;5.19;100.00
18504;BME280;9381;54.244;10.074;2023-03-12T19:36:23;99747.22;;;5.33;100.00
18504;BME280;9381;54.244;10.074;2023-03-12T19:41:23;99746.41;;;5.39;100.00
18504;BME280;9381;54.244;10.074;2023-03-12T19:46:23;99754.88;;;5.36;100.00
18504;BME280;9381;54.244;10.074;2023-03-12T19:51:24;99738.97;;;5.54;100.00
18504;BME280;9381;54.244;10.074;2023-03-12T19:56:25;99738.31;;;5.77;100.00
18504;BME280;9381;54.244;10.074;2023-03-12T20:01:25;99732.31;;;5.88;100.00
18504;BME280;9381;54.244;10.074;2023-03-12T20:06:25;99731.91;;;5.91;100.00
18504;BME280;9381;54.244;10.074;2023-03-12T20:11:26;99740.97;;;5.97;100.00
18504;BME280;9381;54.244;10.074;2023-03-12T20:16:26;99729.94;;;6.18;100.00
18504;BME280;9381;54.244;10.074;2023-03-12T20:21:27;99725.28;;;6.00;100.00
18504;BME280;9381;54.244;10.074;2023-03-12T20:26:27;99726.47;;;6.17;100.00
18504;BME280;9381;54.244;10.074;2023-03-12T20:31:28;99714.84;;;6.23;100.00
18504;BME280;9381;54.244;10.074;2023-03-12T20:36:28;99708.25;;;6.26;100.00
18504;BME280;9381;54.244;10.074;2023-03-12T20:41:28;99707.34;;;6.38;100.00
18504;BME280;9381;54.244;10.074;2023-03-12T20:46:29;99711.59;;;6.59;100.00
18504;BME280;9381;54.244;10.074;2023-03-12T20:51:30;99721.47;;;6.65;100.00
18504;BME280;9381;54.244;10.074;2023-03-12T20:56:30;99709.94;;;6.89;100.00
18504;BME280;9381;54.244;10.074;2023-03-12T21:01:30;99696.72;;;6.87;100.00
18504;BME280;9381;54.244;10.074;2023-03-12T21:06:31;99703.13;;;7.17;100.00
18504;BME280;9381;54.244;10.074;2023-03-12T21:11:31;99706.41;;;7.19;100.00
18504;BME280;9381;54.244;10.074;2023-03-12T21:16:31;99697.16;;;7.33;100.00
18504;BME280;9381;54.244;10.074;2023-03-12T21:21:32;99683.97;;;7.32;100.00
18504;BME280;9381;54.244;10.074;2023-03-12T21:26:35;99692.72;;;7.45;100.00
18504;BME280;9381;54.244;10.074;2023-03-12T21:31:35;99681.53;;;7.48;100.00
18504;BME280;9381;54.244;10.074;2023-03-12T21:36:35;99672.88;;;7.64;100.00
18504;BME280;9381;54.244;10.074;2023-03-12T21:41:36;99670.13;;;7.71;100.00
18504;BME280;9381;54.244;10.074;2023-03-12T21:46:36;99659.84;;;7.79;100.00
18504;BME280;9381;54.244;10.074;2023-03-12T21:51:37;99650.41;;;8.06;100.00
18504;BME280;9381;54.244;10.074;2023-03-12T21:56:37;99645.13;;;8.00;100.00
18504;BME280;9381;54.244;10.074;2023-03-12T22:01:37;99643.03;;;8.20;100.00
18504;BME280;9381;54.244;10.074;2023-03-12T22:06:38;99650.44;;;8.24;100.00
18504;BME280;9381;54.244;10.074;2023-03-12T22:11:38;99655.22;;;8.22;100.00
18504;BME280;9381;54.244;10.074;2023-03-12T22:16:38;99637.22;;;8.34;100.00
18504;BME280;9381;54.244;10.074;2023-03-12T22:21:39;99633.03;;;8.38;100.00
18504;BME280;9381;54.244;10.074;2023-03-12T22:26:41;99622.16;;;8.45;100.00
18504;BME280;9381;54.244;10.074;2023-03-12T22:31:41;99618.25;;;8.29;100.00
18504;BME280;9381;54.244;10.074;2023-03-12T22:36:42;99602.91;;;8.30;100.00
18504;BME280;9381;54.244;10.074;2023-03-12T22:41:42;99600.66;;;8.56;100.00
18504;BME280;9381;54.244;10.074;2023-03-12T22:46:43;99595.50;;;8.25;100.00
18504;BME280;9381;54.244;10.074;2023-03-12T22:51:43;99598.19;;;8.55;100.00
18504;BME280;9381;54.244;10.074;2023-03-12T22:56:43;99595.84;;;8.58;100.00
18504;BME280;9381;54.244;10.074;2023-03-12T23:01:44;99581.34;;;8.30;100.00
18504;BME280;9381;54.244;10.074;2023-03-12T23:06:44;99575.69;;;8.49;100.00
18504;BME280;9381;54.244;10.074;2023-03-12T23:11:44;99582.69;;;8.50;100.00
18504;BME280;9381;54.244;10.074;2023-03-12T23:16:44;99576.75;;;8.71;100.00
18504;BME280;9381;54.244;10.074;2023-03-12T23:21:45;99581.56;;;8.69;100.00
18504;BME280;9381;54.244;10.074;2023-03-12T23:26:45;99570.44;;;8.65;100.00
18504;BME280;9381;54.244;10.074;2023-03-12T23:31:45;99561.63;;;8.70;100.00
18504;BME280;9381;54.244;10.074;2023-03-12T23:36:46;99561.63;;;8.70;100.00
18504;BME280;9381;54.244;10.074;2023-03-12T23:41:46;99575.44;;;8.62;100.00
18504;BME280;9381;54.244;10.074;2023-03-12T23:46:46;99563.28;;;8.71;100.00
18504;BME280;9381;54.244;10.074;2023-03-12T23:51:47;99557.44;;;8.74;100.00
18504;BME280;9381;54.244;10.074;2023-03-12T23:56:47;99558.13;;;8.58;100.00
